Time;durP1;ratioP1;P1;durP2;ratioP2;P2;SDS_P1;SDS_P2;PMS_P1;PMS_P2;Temp;Humidity;BMP_temperature;BMP_pressure;BME280_temperature;BME280_humidity;BME280_pressure;Samples;Min_cycle;Max_cycle;Signal;HPM_P1;HPM_P2
2021/12/16 00:05:39;;;;;;;;;45.75;37.25;;;;;11.84;70.40;103233.00;5001577;28;45689;-74
2021/12/16 00:08:16;;;;;;;;;49.50;38.75;;;;;11.92;70.51;103251.84;5017649;28;45484;-73
2021/12/16 00:10:53;;;;;;;;;41.75;36.00;;;;;11.91;70.38;103245.66;5017529;28;45518;-73
2021/12/16 00:34:50;;;;;;;;;51.25;42.50;;;;;11.89;70.31;103252.63;5001598;28;45470;-74
2021/12/16 00:37:16;;;;;;;;;51.75;41.25;;;;;11.81;70.00;103230.16;5016575;28;45972;-73
2021/12/16 00:39:44;;;;;;;;;48.25;41.75;;;;;11.81;70.22;103227.50;4981879;28;45503;-73
2021/12/16 00:42:20;;;;;;;;;55.25;44.50;;;;;11.87;70.00;103241.03;5002825;28;45463;-73
2021/12/16 00:45:06;;;;;;;;;54.50;44.00;;;;;11.90;69.83;103246.50;5001078;28;45500;-73
2021/12/16 00:47:58;;;;;;;;;48.50;41.50;;;;;11.90;69.97;103243.84;5017244;28;47263;-73
2021/12/16 00:54:09;;;;;;;;;58.00;45.75;;;;;11.83;69.76;103231.19;5010456;28;45468;-73
2021/12/16 00:55:55;;;;;;;;;53.75;42.00;;;;;11.89;69.85;103235.84;5000220;28;45425;-73
2021/12/16 00:58:26;;;;;;;;;50.25;40.75;;;;;11.89;69.68;103241.13;4999103;28;45772;-73
2021/12/16 01:01:04;;;;;;;;;55.75;44.25;;;;;11.77;69.78;103217.63;4999213;28;45302;-73
2021/12/16 01:03:45;;;;;;;;;53.75;43.00;;;;;11.88;69.67;103234.94;5017006;28;45533;-73
2021/12/16 01:49:30;;;;;;;;;54.50;43.75;;;;;11.89;69.45;103238.50;4984257;28;45247;-73
2021/12/16 01:57:00;;;;;;;;;48.50;39.75;;;;;11.79;69.75;103237.13;4977260;28;45500;-73
2021/12/16 01:59:33;;;;;;;;;53.75;42.25;;;;;11.87;69.70;103249.00;5015444;28;45507;-74
2021/12/16 02:02:11;;;;;;;;;48.00;40.50;;;;;11.87;69.73;103259.59;5015788;28;46767;-73
2021/12/16 02:04:42;;;;;;;;;49.75;41.50;;;;;11.76;69.70;103243.19;4983061;28;45576;-73
2021/12/16 02:07:26;;;;;;;;;51.00;40.25;;;;;11.87;69.92;103262.22;5015703;28;45368;-73
2021/12/16 02:09:56;;;;;;;;;50.25;39.00;;;;;11.88;69.69;103263.13;5009405;28;45591;-73
2021/12/16 02:31:34;;;;;;;;;52.25;40.50;;;;;11.82;69.78;103244.31;5019570;28;45503;-73
2021/12/16 02:36:37;;;;;;;;;44.00;37.00;;;;;11.91;69.74;103264.19;4999047;28;45425;-73
2021/12/16 02:39:13;;;;;;;;;54.00;40.00;;;;;11.85;69.74;103255.06;5018862;28;45473;-73
2021/12/16 02:41:40;;;;;;;;;47.25;38.25;;;;;11.92;69.74;103260.69;5000661;28;45595;-73
2021/12/16 02:44:15;;;;;;;;;46.50;38.50;;;;;11.82;69.75;103245.22;5018956;28;47377;-73
2021/12/16 02:49:25;;;;;;;;;49.75;40.00;;;;;11.90;69.52;103253.53;5009911;28;45555;-73
2021/12/16 02:51:51;;;;;;;;;50.50;40.75;;;;;11.85;69.86;103242.75;4990675;28;45649;-73
2021/12/16 02:54:17;;;;;;;;;54.00;41.00;;;;;11.93;69.76;103264.25;5001004;28;47271;-73
2021/12/16 02:56:43;;;;;;;;;54.00;41.75;;;;;11.95;69.92;103257.28;4981656;28;45738;-73
2021/12/16 02:59:08;;;;;;;;;50.50;38.75;;;;;11.95;69.66;103263.50;5016772;28;45373;-73
2021/12/16 03:01:38;;;;;;;;;50.75;40.50;;;;;11.84;69.60;103243.59;5021391;28;45580;-73
2021/12/16 03:04:06;;;;;;;;;57.75;41.25;;;;;11.95;69.61;103263.50;4983583;28;45458;-73
2021/12/16 03:06:33;;;;;;;;;49.25;40.00;;;;;11.84;69.76;103243.59;5000678;28;45674;-74
2021/12/16 03:08:59;;;;;;;;;52.25;40.25;;;;;11.95;69.62;103254.66;5008362;28;45480;-73
2021/12/16 03:11:34;;;;;;;;;54.25;42.75;;;;;11.86;69.54;103243.63;5015824;28;45559;-73
2021/12/16 03:21:34;;;;;;;;;49.25;39.25;;;;;11.92;69.54;103263.34;5018454;28;45591;-73
2021/12/16 03:36:49;;;;;;;;;48.25;41.25;;;;;11.86;69.73;103249.84;5017980;28;45546;-73
2021/12/16 03:39:14;;;;;;;;;54.25;41.25;;;;;11.84;69.65;103250.63;5016287;28;45680;-73
2021/12/16 03:41:40;;;;;;;;;51.50;39.00;;;;;11.95;69.65;103268.78;5000937;28;45573;-73
2021/12/16 03:44:09;;;;;;;;;50.75;41.00;;;;;11.93;69.73;103265.19;4997355;28;46483;-73
2021/12/16 03:46:38;;;;;;;;;55.75;40.75;;;;;11.83;69.50;103246.16;4980983;28;45382;-73
2021/12/16 03:49:09;;;;;;;;;52.25;40.25;;;;;11.94;69.59;103268.72;4997304;28;45399;-74
2021/12/16 03:51:37;;;;;;;;;52.25;41.00;;;;;11.95;69.67;103268.78;4996968;28;45412;-73
2021/12/16 03:54:07;;;;;;;;;46.50;40.25;;;;;11.85;69.54;103245.38;4998001;28;47077;-73
2021/12/16 03:56:33;;;;;;;;;48.75;38.75;;;;;11.94;69.66;103264.34;4997366;28;45361;-73
2021/12/16 03:58:58;;;;;;;;;44.50;39.75;;;;;11.94;69.55;103261.69;4998612;28;46576;-73
2021/12/16 04:01:25;;;;;;;;;52.25;39.50;;;;;11.96;69.62;103267.03;4997678;28;45639;-73
2021/12/16 04:03:50;;;;;;;;;48.25;38.00;;;;;11.92;69.97;103262.44;4990264;28;47024;-73
2021/12/16 04:06:17;;;;;;;;;54.25;42.25;;;;;11.88;69.74;103255.19;4996733;28;45316;-73
2021/12/16 04:08:42;;;;;;;;;49.25;39.25;;;;;11.87;69.65;103250.72;4997942;28;45410;-74
2021/12/16 04:11:19;;;;;;;;;55.00;40.00;;;;;11.97;69.69;103279.44;4997491;28;46744;-73
2021/12/16 04:13:56;;;;;;;;;45.50;37.50;;;;;11.96;69.63;103272.34;4996990;28;47638;-73
2021/12/16 04:16:25;;;;;;;;;50.75;40.25;;;;;11.98;69.63;103275.94;4996414;28;45313;-73
2021/12/16 04:18:50;;;;;;;;;54.00;40.50;;;;;11.89;69.71;103255.28;4997324;28;45336;-73
2021/12/16 04:21:19;;;;;;;;;55.25;40.50;;;;;11.99;69.30;103275.13;4983812;28;45545;-74
2021/12/16 04:23:44;;;;;;;;;47.25;39.25;;;;;11.92;69.58;103259.78;4997588;28;46496;-73
2021/12/16 04:26:09;;;;;;;;;48.75;40.25;;;;;11.95;69.71;103263.50;4997490;28;49463;-74
2021/12/16 04:28:35;;;;;;;;;55.00;37.75;;;;;11.92;69.77;103252.75;4964874;28;45436;-73
2021/12/16 04:31:00;;;;;;;;;49.00;39.75;;;;;11.97;69.87;103276.78;4997778;28;45542;-73
2021/12/16 04:33:26;;;;;;;;;54.25;39.75;;;;;12.01;69.68;103276.09;4995941;28;46474;-73
2021/12/16 04:35:51;;;;;;;;;46.00;40.75;;;;;11.92;69.76;103262.44;4997664;28;50428;-74
2021/12/16 04:38:17;;;;;;;;;47.25;39.50;;;;;12.02;69.66;103293.78;4996885;28;45271;-73
2021/12/16 04:40:45;;;;;;;;;51.50;40.00;;;;;12.03;69.60;103287.66;4987510;28;45528;-73
2021/12/16 04:43:10;;;;;;;;;46.25;38.00;;;;;12.04;69.70;103281.53;5016101;28;46509;-73
2021/12/16 04:45:36;;;;;;;;;54.00;40.25;;;;;12.04;69.45;103287.75;5016435;28;45401;-73
2021/12/16 04:48:03;;;;;;;;;53.25;42.00;;;;;12.04;69.76;103284.19;5016917;28;45420;-73
2021/12/16 04:50:28;;;;;;;;;46.25;39.50;;;;;11.95;69.37;103271.44;4998544;28;45296;-74
2021/12/16 04:52:53;;;;;;;;;47.75;37.00;;;;;12.04;69.63;103285.09;5016488;28;51611;-73
2021/12/16 04:55:20;;;;;;;;;55.25;41.50;;;;;12.02;69.77;103281.44;5016282;28;48947;-73
2021/12/16 04:57:46;;;;;;;;;51.25;40.00;;;;;12.05;69.60;103299.22;5016251;28;45408;-73
2021/12/16 05:00:13;;;;;;;;;48.75;41.00;;;;;12.01;69.66;103279.63;5016916;28;45190;-74
2021/12/16 05:02:38;;;;;;;;;56.00;41.50;;;;;12.05;69.67;103291.28;4994528;28;47012;-73
2021/12/16 05:05:04;;;;;;;;;52.00;39.50;;;;;11.99;69.83;103283.06;5013460;28;45361;-73
2021/12/16 05:07:29;;;;;;;;;53.25;41.25;;;;;12.02;69.86;103285.84;5016555;28;45361;-73
2021/12/16 05:12:22;;;;;;;;;51.75;41.00;;;;;12.03;69.72;103299.13;5016261;28;46486;-74
2021/12/16 05:14:48;;;;;;;;;52.00;41.75;;;;;12.04;69.75;103298.34;4992211;28;45566;-73
2021/12/16 05:17:34;;;;;;;;;56.50;43.75;;;;;12.04;69.91;103298.34;5016700;28;45452;-74
2021/12/16 05:20:05;;;;;;;;;55.25;43.25;;;;;12.03;69.71;103293.84;5016365;28;45336;-73
2021/12/16 05:25:25;;;;;;;;;53.50;41.25;;;;;11.96;69.85;103281.19;5012475;28;46179;-73
2021/12/16 05:27:51;;;;;;;;;54.25;41.75;;;;;11.99;69.79;103285.72;5012439;28;45515;-73
2021/12/16 05:30:16;;;;;;;;;57.00;46.00;;;;;12.01;69.87;103302.56;4993671;28;45446;-73
2021/12/16 05:32:45;;;;;;;;;56.25;45.75;;;;;11.96;69.68;103288.22;5012504;28;46177;-74
2021/12/16 05:35:15;;;;;;;;;53.25;40.50;;;;;11.97;69.88;103301.53;5018406;28;45538;-71
2021/12/16 05:37:41;;;;;;;;;54.50;43.75;;;;;12.00;69.78;103303.41;4981199;28;45617;-71
2021/12/16 05:40:07;;;;;;;;;54.50;40.25;;;;;12.00;69.70;103311.34;5023644;28;45467;-70
2021/12/16 05:42:33;;;;;;;;;59.75;45.75;;;;;11.93;69.92;103299.59;5016590;28;46570;-71
2021/12/16 05:44:58;;;;;;;;;52.75;44.00;;;;;12.00;69.95;103319.31;5016633;28;45270;-72
2021/12/16 05:47:24;;;;;;;;;56.25;46.75;;;;;12.02;69.79;103326.47;4999776;28;55685;-73
2021/12/16 05:49:49;;;;;;;;;54.00;42.50;;;;;12.01;69.91;103321.09;5015044;28;54578;-72
2021/12/16 05:52:14;;;;;;;;;57.00;43.00;;;;;11.97;69.87;103311.22;5014818;28;62076;-73
2021/12/16 05:54:40;;;;;;;;;50.25;40.00;;;;;11.95;69.77;103304.94;5015101;28;55748;-70
2021/12/16 05:57:05;;;;;;;;;60.25;42.50;;;;;12.02;69.79;103326.47;5014276;28;59866;-72
2021/12/16 05:59:31;;;;;;;;;53.25;44.00;;;;;12.02;69.97;103312.31;5015355;28;45464;-71
2021/12/16 06:01:56;;;;;;;;;53.00;42.75;;;;;12.06;69.92;103328.41;5015492;28;50445;-74
2021/12/16 06:04:22;;;;;;;;;57.75;44.75;;;;;12.05;69.77;103331.91;5011959;28;60354;-74
2021/12/16 06:06:47;;;;;;;;;51.25;40.75;;;;;11.97;69.99;103309.47;5014826;28;45581;-73
2021/12/16 06:09:13;;;;;;;;;54.75;44.50;;;;;11.97;70.03;103313.84;5012262;28;45612;-73
2021/12/16 06:11:42;;;;;;;;;53.00;43.00;;;;;11.97;69.94;103320.06;5010936;28;67950;-72
2021/12/16 06:14:19;;;;;;;;;54.00;43.50;;;;;12.06;69.79;103332.81;5010865;28;45602;-73
2021/12/16 06:26:24;;;;;;;;;58.75;44.25;;;;;12.01;70.27;103337.91;5013584;28;45795;-72
2021/12/16 06:27:56;;;;;;;;;51.00;38.50;;;;;11.66;71.10;103322.09;5010830;28;46796;-72
2021/12/16 06:30:27;;;;;;;;;49.75;39.50;;;;;11.51;71.63;103312.63;4996096;28;45687;-74
2021/12/16 06:32:53;;;;;;;;;52.25;40.25;;;;;11.52;71.73;103329.41;5010872;28;45960;-73
2021/12/16 06:35:18;;;;;;;;;46.50;41.00;;;;;11.47;71.88;103326.53;5013462;28;45523;-74
2021/12/16 06:37:44;;;;;;;;;54.75;43.75;;;;;11.41;71.79;103322.72;5014427;28;45206;-72
2021/12/16 06:40:10;;;;;;;;;55.50;44.00;;;;;11.41;71.98;103328.00;5006420;22;46223;-72
2021/12/16 06:42:38;;;;;;;;;52.25;40.25;;;;;11.39;72.08;103332.28;4991453;28;46472;-74
2021/12/16 06:45:08;;;;;;;;;56.25;45.25;;;;;11.37;72.22;103334.88;4969865;28;46461;-73
2021/12/16 06:50:55;;;;;;;;;54.00;42.00;;;;;11.34;71.63;103341.75;4972392;28;45579;-73
2021/12/16 06:53:30;;;;;;;;;57.50;44.75;;;;;11.31;72.78;103341.63;4976525;28;46476;-73
2021/12/16 06:58:32;;;;;;;;;54.75;46.25;;;;;11.14;72.84;103324.94;4976348;28;45498;-75
2021/12/16 07:01:12;;;;;;;;;58.50;44.75;;;;;11.17;72.98;103335.66;4988432;28;45655;-75
2021/12/16 07:03:55;;;;;;;;;60.75;46.25;;;;;11.29;72.63;103354.75;4976425;28;46237;-71
2021/12/16 07:06:23;;;;;;;;;55.50;46.00;;;;;11.34;72.66;103354.97;4989406;28;45289;-71
2021/12/16 07:08:50;;;;;;;;;52.75;42.50;;;;;11.36;72.19;103354.22;4958921;28;45730;-71
2021/12/16 07:11:16;;;;;;;;;52.75;43.75;;;;;11.43;72.28;103342.19;4966176;28;45760;-74
2021/12/16 07:13:44;;;;;;;;;57.00;47.00;;;;;11.48;72.10;103354.81;4960362;28;45588;-72
2021/12/16 07:16:11;;;;;;;;;51.50;42.25;;;;;11.58;72.02;103355.25;4980292;28;45504;-72
2021/12/16 07:18:36;;;;;;;;;51.00;40.50;;;;;11.52;71.82;103343.53;4963805;28;45589;-73
2021/12/16 07:21:02;;;;;;;;;56.75;44.00;;;;;11.65;71.82;103362.63;4960030;28;45890;-73
2021/12/16 07:23:27;;;;;;;;;56.75;44.50;;;;;11.61;71.71;103340.44;4984363;28;47560;-72
2021/12/16 07:25:53;;;;;;;;;55.00;41.50;;;;;11.69;71.83;103349.63;4981795;28;45655;-72
2021/12/16 07:28:19;;;;;;;;;47.25;40.25;;;;;11.74;71.58;103360.44;4979877;28;45248;-72
2021/12/16 07:30:44;;;;;;;;;56.50;42.25;;;;;11.80;71.73;103364.25;4994607;28;51098;-72
2021/12/16 07:33:12;;;;;;;;;51.75;40.75;;;;;11.83;71.45;103354.69;4983070;28;46725;-72
2021/12/16 07:35:38;;;;;;;;;52.00;41.75;;;;;11.84;71.52;103352.13;4994238;28;45508;-71
2021/12/16 07:38:04;;;;;;;;;56.50;44.00;;;;;11.87;71.47;103365.47;4966979;28;45729;-72
2021/12/16 07:40:30;;;;;;;;;53.75;41.50;;;;;11.89;71.45;103365.56;4988410;28;45507;-71
2021/12/16 07:45:45;;;;;;;;;53.50;41.75;;;;;11.94;71.36;103364.94;4974770;28;45296;-72
2021/12/16 07:48:11;;;;;;;;;55.00;43.00;;;;;11.95;71.34;103366.75;4971595;28;45544;-72
2021/12/16 07:50:37;;;;;;;;;50.75;40.50;;;;;11.98;71.09;103369.53;4983510;28;45646;-76
2021/12/16 07:53:05;;;;;;;;;58.00;42.00;;;;;11.95;71.25;103361.47;4994408;28;46593;-72
2021/12/16 07:55:30;;;;;;;;;52.00;40.75;;;;;11.97;71.15;103366.81;4939907;28;45490;-72
2021/12/16 07:57:56;;;;;;;;;51.75;41.25;;;;;12.01;71.08;103374.97;4973634;28;45364;-72
2021/12/16 08:00:24;;;;;;;;;51.75;42.00;;;;;12.01;71.08;103369.66;4987902;28;57801;-71
2021/12/16 08:02:49;;;;;;;;;57.25;44.00;;;;;12.03;71.01;103368.00;4989329;28;47171;-71
2021/12/16 08:05:16;;;;;;;;;56.50;42.00;;;;;12.00;71.11;103370.50;4960507;28;45896;-72
2021/12/16 08:07:42;;;;;;;;;56.75;43.75;;;;;12.04;71.05;103380.41;4977908;28;45389;-71
2021/12/16 08:10:09;;;;;;;;;54.75;43.00;;;;;12.06;71.08;103378.72;5004967;28;60112;-71
2021/12/16 08:12:35;;;;;;;;;56.75;43.75;;;;;12.06;71.11;103384.03;4997014;28;46718;-74
2021/12/16 08:15:00;;;;;;;;;59.50;46.00;;;;;12.11;71.08;103393.94;4976528;28;47313;-71
2021/12/16 08:17:25;;;;;;;;;57.25;44.00;;;;;12.09;71.04;103382.34;4995596;28;49750;-71
2021/12/16 08:19:51;;;;;;;;;54.75;44.00;;;;;12.11;71.16;103397.50;4982800;28;48804;-72
2021/12/16 08:22:16;;;;;;;;;60.50;47.25;;;;;12.14;70.85;103386.13;4979381;28;59984;-72
2021/12/16 08:24:42;;;;;;;;;52.50;44.25;;;;;12.14;70.97;103387.00;4993430;28;62349;-71
2021/12/16 08:27:08;;;;;;;;;60.00;46.50;;;;;12.15;71.00;103383.56;4981247;28;45642;-71
2021/12/16 08:29:34;;;;;;;;;57.00;44.25;;;;;12.19;71.25;103396.06;4977163;28;45417;-72
2021/12/16 08:31:59;;;;;;;;;59.75;47.50;;;;;12.17;70.83;103388.91;4995122;28;45768;-71
2021/12/16 08:34:26;;;;;;;;;62.75;48.00;;;;;12.17;70.85;103399.50;4988701;28;53753;-71
2021/12/16 08:36:52;;;;;;;;;59.50;46.25;;;;;12.20;70.71;103397.00;4963905;28;45540;-71
2021/12/16 08:39:18;;;;;;;;;60.00;47.00;;;;;12.21;70.62;103396.16;4955329;28;45508;-70
2021/12/16 08:41:47;;;;;;;;;63.00;47.50;;;;;12.25;70.64;103395.44;4995863;28;45629;-71
2021/12/16 08:44:13;;;;;;;;;54.50;43.75;;;;;12.24;70.41;103399.84;4979077;28;47151;-71
2021/12/16 08:46:41;;;;;;;;;62.75;48.25;;;;;12.22;70.44;103387.38;4977963;28;45380;-71
2021/12/16 08:49:06;;;;;;;;;57.50;44.50;;;;;12.23;70.38;103381.25;4966639;28;45259;-71
2021/12/16 08:51:37;;;;;;;;;60.50;46.50;;;;;12.33;70.37;103402.00;4989054;28;57296;-71
2021/12/16 08:54:03;;;;;;;;;55.50;45.00;;;;;12.33;70.40;103400.25;4964064;28;45457;-72
2021/12/16 08:56:28;;;;;;;;;56.25;46.00;;;;;12.38;70.51;103411.06;5000336;28;45648;-71
2021/12/16 08:58:55;;;;;;;;;59.50;45.75;;;;;12.40;70.49;103408.47;4991378;28;45537;-72
2021/12/16 09:01:23;;;;;;;;;61.25;46.50;;;;;12.41;70.20;103413.88;4983300;28;46739;-71
2021/12/16 09:03:49;;;;;;;;;64.50;50.00;;;;;12.32;70.37;103400.22;4997385;28;45528;-70
2021/12/16 09:06:15;;;;;;;;;59.00;46.75;;;;;12.40;70.17;103395.22;4985982;28;45535;-70
2021/12/16 09:08:40;;;;;;;;;60.75;47.75;;;;;12.35;69.85;103392.38;4976892;28;45338;-71
2021/12/16 09:11:08;;;;;;;;;63.75;46.50;;;;;12.49;70.18;103412.47;4985397;28;59485;-71
2021/12/16 09:13:34;;;;;;;;;57.25;47.25;;;;;12.52;70.05;103423.22;4988940;28;45425;-71
2021/12/16 09:16:01;;;;;;;;;56.50;47.75;;;;;12.54;70.18;103420.63;4981255;28;45563;-71
2021/12/16 09:18:28;;;;;;;;;54.75;45.00;;;;;12.49;69.94;103411.56;4975847;28;45499;-71
2021/12/16 09:20:54;;;;;;;;;60.50;45.25;;;;;12.50;69.81;103411.59;4970392;28;45744;-71
2021/12/16 09:23:20;;;;;;;;;62.75;48.75;;;;;12.58;69.94;103425.22;4968734;28;45422;-71
2021/12/16 09:25:46;;;;;;;;;63.75;49.00;;;;;12.59;69.66;103425.28;4984628;28;48305;-72
2021/12/16 09:28:11;;;;;;;;;63.25;48.00;;;;;12.64;70.08;103440.50;4991228;28;45740;-71
2021/12/16 09:30:37;;;;;;;;;67.00;50.75;;;;;12.65;70.10;103429.94;4976471;28;52064;-71
2021/12/16 09:33:04;;;;;;;;;60.25;48.50;;;;;12.67;69.89;103436.22;4967244;28;46744;-71
2021/12/16 09:35:33;;;;;;;;;66.25;49.00;;;;;12.67;69.53;103435.31;4988182;28;45423;-71
2021/12/16 09:37:59;;;;;;;;;64.50;49.75;;;;;12.66;69.98;103431.75;4971706;28;45639;-71
2021/12/16 09:40:25;;;;;;;;;59.50;46.50;;;;;12.72;69.48;103444.38;4966580;28;47457;-71
2021/12/16 09:42:51;;;;;;;;;63.25;46.50;;;;;12.72;69.49;103439.97;4979028;28;45483;-71
2021/12/16 09:45:16;;;;;;;;;64.00;47.50;;;;;12.74;69.75;103448.00;4980335;28;45607;-71
2021/12/16 09:47:43;;;;;;;;;64.00;48.75;;;;;12.69;69.51;103434.56;4969661;28;45449;-72
2021/12/16 09:50:08;;;;;;;;;56.75;45.00;;;;;12.71;69.81;103434.59;4982568;28;45857;-71
2021/12/16 09:52:34;;;;;;;;;60.50;46.75;;;;;12.80;69.23;103454.47;4983378;28;45438;-72
2021/12/16 09:55:00;;;;;;;;;64.25;47.75;;;;;12.82;69.77;103455.44;4988657;28;45603;-72
2021/12/16 09:57:25;;;;;;;;;62.75;50.75;;;;;12.85;69.64;103450.28;4959455;28;45665;-72
2021/12/16 09:59:51;;;;;;;;;57.75;47.00;;;;;12.78;69.25;103448.22;4996981;28;45904;-72
2021/12/16 10:02:18;;;;;;;;;58.75;46.75;;;;;12.84;69.38;103447.56;4979379;28;45386;-71
2021/12/16 10:04:43;;;;;;;;;60.75;48.25;;;;;12.77;69.28;103440.16;4989257;28;45461;-71
2021/12/16 10:07:13;;;;;;;;;64.75;47.25;;;;;12.88;69.32;103452.16;4982750;28;45436;-71
2021/12/16 10:09:39;;;;;;;;;60.75;47.25;;;;;12.90;69.36;103457.53;4979233;28;46484;-71
2021/12/16 10:12:11;;;;;;;;;51.50;43.50;;;;;12.91;69.34;103465.56;4969190;28;45563;-73
2021/12/16 10:17:35;;;;;;;;;62.00;48.00;;;;;12.85;69.30;103437.03;4984701;28;46414;-72
2021/12/16 10:20:17;;;;;;;;;63.25;47.75;;;;;12.99;69.02;103453.50;4988942;28;45844;-71
2021/12/16 10:22:46;;;;;;;;;63.25;50.00;;;;;12.94;68.89;103446.19;4992745;28;45421;-72
2021/12/16 10:25:22;;;;;;;;;60.75;48.50;;;;;12.99;69.44;103457.91;4993152;28;46851;-71
2021/12/16 10:28:09;;;;;;;;;67.50;52.75;;;;;13.08;69.12;103463.63;5001051;28;45433;-72
2021/12/16 10:30:36;;;;;;;;;63.50;49.00;;;;;13.10;69.06;103472.53;4991299;28;46603;-71
2021/12/16 10:33:10;;;;;;;;;64.75;51.00;;;;;13.10;68.79;103467.25;4990673;28;45421;-72
2021/12/16 10:35:35;;;;;;;;;70.25;49.75;;;;;13.11;68.76;103464.69;4996800;28;45427;-71
2021/12/16 10:38:03;;;;;;;;;63.75;50.00;;;;;13.06;68.94;103446.75;5003069;28;45409;-73
2021/12/16 10:40:43;;;;;;;;;62.00;49.50;;;;;13.17;68.87;103463.13;4976679;28;47137;-75
2021/12/16 10:43:14;;;;;;;;;58.25;47.00;;;;;13.18;69.44;103460.53;4981186;28;45481;-72
2021/12/16 10:45:40;;;;;;;;;51.75;41.50;;;;;13.24;69.01;103462.56;4993615;28;45460;-72
2021/12/16 10:48:17;;;;;;;;;51.75;40.00;;;;;13.17;69.00;103436.59;4999300;28;45496;-72
2021/12/16 10:50:51;;;;;;;;;43.75;37.00;;;;;13.28;68.54;103460.09;4996782;28;46540;-71
2021/12/16 10:53:37;;;;;;;;;44.25;36.00;;;;;13.22;68.58;103437.72;4996717;28;45386;-73
2021/12/16 10:56:03;;;;;;;;;44.25;36.25;;;;;13.33;68.20;103447.94;4987637;28;45542;-73
2021/12/16 10:58:45;;;;;;;;;50.00;35.50;;;;;13.39;68.10;103451.69;4946096;28;45577;-71
2021/12/16 11:01:34;;;;;;;;;48.00;36.25;;;;;13.44;68.06;103448.38;4992929;28;47606;-73
2021/12/16 11:04:01;;;;;;;;;39.50;33.75;;;;;13.45;67.77;103447.53;4995062;28;45491;-70
2021/12/16 11:06:41;;;;;;;;;43.50;34.75;;;;;13.41;68.26;103434.97;4990050;28;45390;-71
2021/12/16 11:09:48;;;;;;;;;41.25;36.25;;;;;13.53;68.41;103448.78;4987930;28;45448;-73
2021/12/16 11:12:15;;;;;;;;;45.00;36.00;;;;;13.47;67.87;103437.88;4987257;28;47443;-72
2021/12/16 11:14:43;;;;;;;;;40.75;34.25;;;;;13.55;67.77;103451.47;4987737;28;45526;-71
2021/12/16 11:17:10;;;;;;;;;45.50;37.00;;;;;13.57;67.88;103450.69;4975618;28;45528;-71
2021/12/16 11:19:43;;;;;;;;;38.75;35.25;;;;;13.60;67.89;103452.56;4997643;28;45368;-71
2021/12/16 11:22:09;;;;;;;;;45.00;37.25;;;;;13.62;67.74;103449.13;4996195;28;47912;-71
2021/12/16 11:24:34;;;;;;;;;43.00;34.75;;;;;13.63;67.32;103452.69;5000125;28;45749;-72
2021/12/16 11:27:24;;;;;;;;;42.00;33.00;;;;;13.58;67.75;103433.00;4981787;28;45464;-71
2021/12/16 11:29:50;;;;;;;;;41.25;33.50;;;;;13.68;67.36;103444.91;4985113;28;45489;-73
2021/12/16 11:32:39;;;;;;;;;38.75;33.25;;;;;13.72;67.35;103449.50;4959641;28;46281;-72
2021/12/16 11:35:24;;;;;;;;;35.25;32.00;;;;;13.72;67.44;103449.50;4994323;28;45440;-72
2021/12/16 11:37:49;;;;;;;;;34.25;32.00;;;;;13.74;67.64;103447.78;4995402;28;45206;-72
2021/12/16 11:40:15;;;;;;;;;34.25;29.75;;;;;13.74;67.32;103448.72;4980836;28;59537;-72
2021/12/16 11:42:41;;;;;;;;;36.50;29.25;;;;;13.77;67.24;103451.50;4988718;28;46636;-71
2021/12/16 11:45:06;;;;;;;;;34.00;31.00;;;;;13.78;66.64;103447.97;5002967;28;45405;-72
2021/12/16 11:47:32;;;;;;;;;33.50;30.75;;;;;13.79;66.42;103452.44;5001845;28;45214;-72
2021/12/16 11:50:01;;;;;;;;;32.00;30.75;;;;;13.82;66.86;103441.06;4993695;28;45341;-71
2021/12/16 11:52:31;;;;;;;;;35.75;33.00;;;;;13.83;66.21;103442.84;4991939;28;46220;-72
2021/12/16 11:54:57;;;;;;;;;36.00;29.75;;;;;13.84;65.77;103449.97;4983801;28;45445;-72
2021/12/16 11:57:30;;;;;;;;;35.50;29.50;;;;;13.85;66.54;103449.16;4985329;28;45461;-71
2021/12/16 11:59:58;;;;;;;;;32.75;29.50;;;;;13.85;66.40;103447.41;4998348;28;45480;-72
2021/12/16 12:02:34;;;;;;;;;31.00;27.25;;;;;13.87;66.43;103444.78;4980223;28;47675;-72
2021/12/16 12:05:16;;;;;;;;;33.00;30.00;;;;;13.89;66.05;103446.66;4995120;28;45599;-71
2021/12/16 12:07:46;;;;;;;;;37.00;32.50;;;;;13.80;66.10;103434.78;4992771;28;45361;-72
2021/12/16 12:10:12;;;;;;;;;36.75;32.00;;;;;13.88;66.16;103441.28;4982101;28;45643;-72
2021/12/16 12:12:47;;;;;;;;;34.25;28.00;;;;;13.91;66.15;103445.84;4979420;28;46691;-73
2021/12/16 12:15:15;;;;;;;;;34.25;30.00;;;;;13.89;66.25;103435.13;4998378;28;45333;-71
2021/12/16 12:17:50;;;;;;;;;34.75;30.25;;;;;13.86;65.78;103424.41;4988734;28;45140;-72
2021/12/16 12:20:17;;;;;;;;;36.50;30.00;;;;;13.95;65.94;103439.78;4988258;28;48283;-72
2021/12/16 12:22:42;;;;;;;;;30.75;25.00;;;;;13.97;65.57;103440.75;4997686;28;47247;-72
2021/12/16 12:25:07;;;;;;;;;32.33;27.33;;;;;13.95;65.74;103430.03;4998280;28;49529;-73
2021/12/16 12:27:33;;;;;;;;;30.00;27.25;;;;;13.89;65.36;103420.09;4992168;28;45323;-72
2021/12/16 12:30:00;;;;;;;;;26.00;22.67;;;;;14.00;65.52;103441.75;4995622;28;46095;-72
2021/12/16 12:32:25;;;;;;;;;31.33;25.00;;;;;14.00;65.58;103433.78;4988786;28;45789;-72
2021/12/16 12:35:02;;;;;;;;;26.33;23.33;;;;;13.97;64.93;103424.81;4986773;28;45456;-71
2021/12/16 12:37:29;;;;;;;;;25.33;24.33;;;;;13.93;65.11;103412.25;4974212;28;45504;-71
2021/12/16 12:39:58;;;;;;;;;26.33;20.00;;;;;14.03;65.03;103427.69;4993741;28;45528;-72
2021/12/16 12:42:23;;;;;;;;;29.33;22.00;;;;;14.01;63.72;103424.06;4979303;28;46699;-72
2021/12/16 12:44:49;;;;;;;;;23.67;21.67;;;;;14.02;64.70;103424.16;4990803;28;46760;-72
2021/12/16 12:47:18;;;;;;;;;26.33;23.00;;;;;14.03;65.18;103420.63;4991700;28;45246;-72
2021/12/16 12:49:44;;;;;;;;;29.00;24.00;;;;;13.95;64.49;103406.13;4996576;28;45647;-72
2021/12/16 12:52:12;;;;;;;;;30.67;28.00;;;;;14.04;65.25;103425.09;4996186;28;46481;-71
2021/12/16 12:54:39;;;;;;;;;29.67;25.67;;;;;14.02;65.28;103412.63;4988304;28;45479;-71
2021/12/16 12:57:29;;;;;;;;;20.25;20.00;;;;;14.06;65.56;103418.09;4988478;28;45590;-71
2021/12/16 12:59:54;;;;;;;;;31.67;25.33;;;;;14.05;65.35;103410.97;4988080;28;45427;-71
2021/12/16 13:02:27;;;;;;;;;27.25;26.50;;;;;14.07;64.82;103417.25;4986661;28;46720;-72
2021/12/16 13:05:07;;;;;;;;;28.67;25.00;;;;;14.07;64.70;103414.59;4985614;28;46103;-72
2021/12/16 13:07:43;;;;;;;;;31.00;23.25;;;;;14.08;64.66;103407.53;4989091;28;45376;-72
2021/12/16 13:10:23;;;;;;;;;28.00;25.25;;;;;14.02;65.06;103400.25;4992573;28;45512;-72
2021/12/16 13:13:02;;;;;;;;;27.33;22.33;;;;;14.09;65.02;103401.38;4992449;28;46038;-72
2021/12/16 13:15:48;;;;;;;;;29.00;25.33;;;;;14.07;64.93;103397.75;4992294;28;45528;-72
2021/12/16 13:26:45;;;;;;;;;32.00;24.00;;;;;14.05;64.69;103378.19;4969038;28;45548;-72
2021/12/16 13:34:47;;;;;;;;;25.33;21.33;;;;;14.14;64.08;103405.09;5006283;28;45514;-72
2021/12/16 13:37:23;;;;;;;;;29.33;25.00;;;;;14.12;64.23;103398.84;4978494;28;45488;-72
2021/12/16 13:39:54;;;;;;;;;26.33;20.00;;;;;14.11;63.95;103389.03;4984089;28;45366;-72
2021/12/16 13:42:20;;;;;;;;;22.75;22.75;;;;;14.08;64.14;103387.19;4984692;28;45330;-72
2021/12/16 13:45:02;;;;;;;;;26.33;24.00;;;;;14.03;64.03;103372.81;4994443;28;47467;-72
2021/12/16 13:48:00;;;;;;;;;28.67;23.67;;;;;14.10;63.98;103385.47;4990981;28;45400;-73
2021/12/16 14:01:58;;;;;;;;;30.75;27.25;;;;;14.05;64.03;103397.69;4991255;28;45346;-73
2021/12/16 14:10:09;;;;;;;;;31.75;28.00;;;;;14.03;63.99;103401.13;4993586;28;45966;-72
2021/12/16 14:13:58;;;;;;;;;32.50;28.00;;;;;14.00;63.66;103387.72;4986816;28;45571;-73
2021/12/16 14:15:56;;;;;;;;;29.00;26.75;;;;;13.97;64.01;103387.63;4992023;28;45523;-73
2021/12/16 14:23:00;;;;;;;;;33.25;26.00;;;;;13.92;63.95;103375.94;4981121;28;47518;-73